In Rescue
 
Open Full Screen Window  High Contrast Mode
October 30, 2020 12:13 AM CDT
Weather Information
Wind Direction
  ---
Wind Speed
  00 kt (0 mph)
Wind Gust
  00 kt (0 mph)
Altimeter
30.17 in
Visibility
10 SM
Temperature
00° C
32° F
Dewpoint
-02° C
28° F
Humidity
87%
1hr Rain Fall
00.00 in.
24hr Rain Fall
00.00 in.
Sky Condition
Overcast @ 4,500 ft
Broken @ 3,700 ft
VFR

METAR KGYL 300513Z AUTO 00000KT 10SM BKN037 OVC045 00/M02 A3017 RMK AO2 T00001025

FAA Disclaimer: The data displayed is for advisory purposes only and is not to be used for flight planning or operations.